Sint-Genesius-Rode, Belgium
Current Conditions -  °F | °C
As of 7:20 AM on Wednesday 28 Jan 2015 (Local Time) from EBBR Reporting Station
Broken Clouds Broken Clouds  
Wind Chill: 33°   Ceiling: 4000
Heat Index: 41°   Visibility: 6mi
Dew Point: 37°   Wind: 14mph
Humidity: 87%   Direction: 200°SSW
Pressure: 29.91"   Gusts: NA
Location:  50.75°N, 4.36°E
Report Text: EBBR 280620Z 20012KT 9999 SCT012 BKN040 05/03 Q1013 TEMPO BKN008
Loading
Personal Weather Stations






























Interactive Weather Map New forecast layout! Learn more

10-Day Weather Forecast

Advertisements
Track Severe Weather on mobile